Time;durP1;ratioP1;P1;durP2;ratioP2;P2;SDS_P1;SDS_P2;PMS_P1;PMS_P2;Temp;Humidity;BMP_temperature;BMP_pressure;BME280_temperature;BME280_humidity;BME280_pressure;Samples;Min_cycle;Max_cycle;Signal;HPM_P1;HPM_P2
2022/06/19 09:42:12;;;;;;;6.60;0.75;;;29.80;42.40;;;;;;5099743;27;20124;-59
2022/06/19 09:44:46;;;;;;;6.85;0.68;;;29.80;41.80;;;;;;5088387;28;20044;-57
2022/06/19 09:47:19;;;;;;;7.10;1.52;;;29.90;41.00;;;;;;5086252;28;20037;-61
2022/06/19 09:49:51;;;;;;;6.97;2.03;;;30.00;40.80;;;;;;5065823;28;20072;-54
2022/06/19 09:52:24;;;;;;;3.90;0.50;;;30.20;40.10;;;;;;5081682;28;20102;-56
2022/06/19 09:54:56;;;;;;;6.15;0.85;;;30.30;39.70;;;;;;5084088;28;20046;-56
2022/06/19 09:57:29;;;;;;;6.35;0.90;;;30.50;39.60;;;;;;5081469;28;20048;-53
2022/06/19 10:00:02;;;;;;;7.93;1.05;;;30.70;39.40;;;;;;5085990;28;20072;-54
2022/06/19 10:02:47;;;;;;;9.77;0.30;;;30.80;39.00;;;;;;5083104;28;20106;-58
2022/06/19 10:05:22;;;;;;;6.57;0.60;;;30.90;39.10;;;;;;5084194;28;20046;-61
2022/06/19 10:07:53;;;;;;;4.95;1.70;;;31.10;38.80;;;;;;5084855;28;20115;-62
2022/06/19 10:10:30;;;;;;;3.10;0.85;;;31.10;38.40;;;;;;5083790;28;20052;-59
2022/06/19 10:13:02;;;;;;;7.00;0.95;;;31.30;38.40;;;;;;5084295;28;20040;-63
2022/06/19 10:15:31;;;;;;;6.63;0.90;;;31.40;38.00;;;;;;5101571;28;20043;-60
2022/06/19 10:18:03;;;;;;;4.88;0.60;;;31.50;37.80;;;;;;5090257;28;20036;-58
2022/06/19 10:20:37;;;;;;;8.30;0.85;;;31.60;37.70;;;;;;5088434;28;20135;-61
2022/06/19 10:23:15;;;;;;;6.20;0.55;;;31.70;37.60;;;;;;5085171;28;20045;-62
2022/06/19 10:25:49;;;;;;;6.55;1.80;;;31.80;37.60;;;;;;5084528;28;20124;-55
2022/06/19 10:28:33;;;;;;;4.72;1.15;;;31.90;37.20;;;;;;5085011;28;20094;-58
2022/06/19 10:31:12;;;;;;;6.28;1.48;;;32.00;37.20;;;;;;5084430;28;20071;-56
2022/06/19 10:34:03;;;;;;;4.63;2.17;;;32.10;37.20;;;;;;5080644;28;20036;-52
2022/06/19 10:36:39;;;;;;;4.90;2.20;;;32.10;37.20;;;;;;5081061;28;20156;-52
2022/06/19 10:39:23;;;;;;;8.32;1.40;;;32.20;37.10;;;;;;5082344;28;20036;-61
2022/06/19 10:42:01;;;;;;;5.10;0.57;;;32.20;37.10;;;;;;5083222;28;20076;-56
2022/06/19 10:44:49;;;;;;;8.70;1.52;;;32.30;37.00;;;;;;5083878;28;20055;-54
2022/06/19 10:47:26;;;;;;;4.85;1.40;;;32.30;37.00;;;;;;5080484;28;20123;-58
2022/06/19 10:50:02;;;;;;;7.93;1.23;;;32.30;36.80;;;;;;5083401;28;20064;-51
2022/06/19 10:52:39;;;;;;;4.00;0.43;;;32.40;36.80;;;;;;5073171;28;20045;-54
2022/06/19 10:55:16;;;;;;;3.75;1.15;;;32.50;36.70;;;;;;5068171;28;20044;-54
2022/06/19 10:57:57;;;;;;;9.15;0.82;;;32.50;37.40;;;;;;5070539;28;20037;-53
2022/06/19 11:00:26;;;;;;;4.93;1.20;;;32.50;36.60;;;;;;5067582;28;20047;-69
2022/06/19 11:05:50;;;;;;;7.35;1.52;;;32.70;36.60;;;;;;5067587;28;20044;-59
2022/06/19 11:08:19;;;;;;;3.78;1.33;;;32.70;36.40;;;;;;5071326;28;20044;-55
2022/06/19 11:10:51;;;;;;;2.80;0.98;;;32.70;36.20;;;;;;5070015;28;20140;-57
2022/06/19 11:13:18;;;;;;;8.65;1.63;;;32.80;36.10;;;;;;5070040;28;20457;-58
2022/06/19 11:15:59;;;;;;;15.07;1.08;;;32.90;36.10;;;;;;5068140;28;20037;-59
2022/06/19 11:18:26;;;;;;;7.72;1.02;;;32.90;36.10;;;;;;5071158;28;20086;-57
2022/06/19 11:21:00;;;;;;;6.38;1.65;;;33.00;36.00;;;;;;5070300;28;20095;-57
2022/06/19 11:23:32;;;;;;;6.57;1.27;;;33.10;36.10;;;;;;5069386;28;20044;-51
2022/06/19 11:26:05;;;;;;;8.55;1.23;;;33.10;36.10;;;;;;5067977;28;20066;-48
2022/06/19 11:28:43;;;;;;;8.20;1.77;;;33.20;36.00;;;;;;5065475;28;20120;-49
2022/06/19 11:31:16;;;;;;;3.05;1.23;;;33.20;35.80;;;;;;5066544;28;20594;-50
2022/06/19 11:33:45;;;;;;;2.30;0.93;;;33.30;35.70;;;;;;5063985;28;20476;-50
2022/06/19 11:36:28;;;;;;;5.13;1.45;;;33.30;35.70;;;;;;5061814;28;20144;-53
2022/06/19 11:38:55;;;;;;;5.53;1.20;;;33.40;35.60;;;;;;5066133;28;20505;-51
2022/06/19 11:41:35;;;;;;;2.30;0.98;;;33.40;35.50;;;;;;5063007;28;20056;-49
2022/06/19 11:44:07;;;;;;;4.03;1.10;;;33.60;35.40;;;;;;5070545;28;20056;-54
2022/06/19 11:46:47;;;;;;;8.48;1.23;;;33.60;35.30;;;;;;5068657;28;20086;-54
2022/06/19 11:49:32;;;;;;;5.97;1.23;;;33.70;35.10;;;;;;5069876;28;20049;-51
2022/06/19 11:52:02;;;;;;;9.27;1.02;;;33.80;34.90;;;;;;5064287;28;20071;-55
2022/06/19 11:54:33;;;;;;;9.55;1.70;;;33.80;34.90;;;;;;5068563;28;20051;-56
2022/06/19 11:57:01;;;;;;;6.25;0.77;;;33.80;34.80;;;;;;5065956;28;20561;-56
2022/06/19 11:59:39;;;;;;;4.60;0.82;;;33.80;34.80;;;;;;5068621;28;20040;-57
2022/06/19 12:05:04;;;;;;;4.38;1.05;;;33.80;34.50;;;;;;5068051;27;20542;-53
2022/06/19 12:07:35;;;;;;;5.22;1.83;;;33.70;34.30;;;;;;5055757;28;20075;-54
2022/06/19 12:10:07;;;;;;;5.97;1.13;;;33.70;34.50;;;;;;5056042;28;20044;-54
2022/06/19 12:12:35;;;;;;;2.55;0.77;;;33.70;34.30;;;;;;5057163;28;20144;-52
2022/06/19 12:15:21;;;;;;;10.30;2.03;;;33.80;34.20;;;;;;5054198;28;20045;-53
2022/06/19 12:17:55;;;;;;;2.58;0.90;;;33.80;34.10;;;;;;5055195;28;20076;-53
2022/06/19 12:20:28;;;;;;;9.63;0.83;;;33.80;34.20;;;;;;5060744;28;20041;-54
2022/06/19 12:23:00;;;;;;;5.30;0.90;;;33.80;34.00;;;;;;5057534;28;20302;-52
2022/06/19 12:25:49;;;;;;;11.25;1.23;;;33.90;34.10;;;;;;5058065;28;20048;-56
2022/06/19 12:28:23;;;;;;;6.55;1.10;;;34.00;33.90;;;;;;5054678;28;20075;-52
2022/06/19 12:30:55;;;;;;;10.65;1.00;;;34.00;33.80;;;;;;5060725;28;20107;-50
2022/06/19 12:33:27;;;;;;;7.03;1.08;;;34.10;33.90;;;;;;5048093;28;20045;-52
2022/06/19 12:35:56;;;;;;;5.43;1.40;;;34.10;33.80;;;;;;5054102;28;20043;-48
2022/06/19 12:38:25;;;;;;;3.60;0.90;;;34.20;33.70;;;;;;5060853;28;20761;-53
2022/06/19 12:41:16;;;;;;;2.45;0.70;;;34.30;33.60;;;;;;5056446;28;20067;-53
2022/06/19 12:43:59;;;;;;;6.13;1.23;;;34.40;33.50;;;;;;5051248;28;20037;-53
2022/06/19 12:46:34;;;;;;;4.57;1.08;;;34.40;33.40;;;;;;5052429;28;20363;-54
2022/06/19 12:49:13;;;;;;;4.65;0.93;;;34.30;33.30;;;;;;5059076;28;20839;-55
2022/06/19 12:51:51;;;;;;;3.53;0.93;;;34.30;33.90;;;;;;5052694;28;20044;-56
2022/06/19 12:54:48;;;;;;;5.07;1.58;;;34.40;33.30;;;;;;5049749;28;20047;-55
2022/06/19 12:57:38;;;;;;;8.10;0.75;;;34.40;33.20;;;;;;5059352;28;20131;-51
2022/06/19 13:00:14;;;;;;;2.95;0.80;;;34.40;33.70;;;;;;5058239;28;20187;-53
2022/06/19 13:03:01;;;;;;;3.92;1.00;;;34.50;33.30;;;;;;5057009;28;20045;-50
2022/06/19 13:05:44;;;;;;;5.25;1.40;;;34.50;33.40;;;;;;5074009;28;20072;-53
2022/06/19 13:08:20;;;;;;;2.05;0.85;;;34.60;33.30;;;;;;5060426;28;20043;-51
2022/06/19 13:11:01;;;;;;;5.07;0.77;;;34.60;33.20;;;;;;5055178;28;20106;-55
2022/06/19 13:13:48;;;;;;;2.10;1.10;;;34.60;33.10;;;;;;5053506;28;20060;-56
2022/06/19 13:16:22;;;;;;;10.77;1.83;;;34.70;33.20;;;;;;5043752;28;20041;-55
2022/06/19 13:19:09;;;;;;;1.60;1.02;;;34.80;33.30;;;;;;5043100;28;20049;-54
2022/06/19 13:21:43;;;;;;;4.00;1.27;;;34.80;33.00;;;;;;5039988;28;20124;-54
2022/06/19 13:24:25;;;;;;;6.03;0.95;;;34.80;32.90;;;;;;5040138;28;20033;-51
2022/06/19 13:27:12;;;;;;;5.25;1.42;;;34.80;32.70;;;;;;5041313;28;20046;-52
2022/06/19 13:29:51;;;;;;;9.95;0.80;;;34.80;32.70;;;;;;5045883;28;20033;-55
2022/06/19 13:32:27;;;;;;;5.63;0.80;;;34.80;32.80;;;;;;5046817;28;20036;-55
2022/06/19 13:35:04;;;;;;;6.28;0.80;;;34.80;32.70;;;;;;5040375;28;20086;-53
2022/06/19 13:37:47;;;;;;;3.33;0.30;;;34.90;32.70;;;;;;5039927;28;20045;-53
2022/06/19 13:40:22;;;;;;;1.55;0.30;;;34.90;32.80;;;;;;5042172;28;20143;-51
2022/06/19 13:43:04;;;;;;;3.85;0.57;;;35.00;32.80;;;;;;5041643;28;20489;-53
2022/06/19 13:45:41;;;;;;;2.67;0.77;;;35.00;33.00;;;;;;5042669;28;20040;-55
2022/06/19 13:48:15;;;;;;;5.18;0.40;;;35.10;33.10;;;;;;5041695;28;20038;-55
2022/06/19 13:50:48;;;;;;;3.65;0.85;;;35.20;33.00;;;;;;5045743;28;20053;-55
2022/06/19 13:53:25;;;;;;;3.85;1.63;;;35.30;33.10;;;;;;5044656;28;20041;-55
2022/06/19 13:56:01;;;;;;;2.70;1.13;;;35.40;32.90;;;;;;5036718;28;20132;-54
2022/06/19 13:58:45;;;;;;;6.65;1.23;;;35.40;32.70;;;;;;5045142;28;20077;-53
2022/06/19 14:01:24;;;;;;;2.35;0.95;;;35.40;32.70;;;;;;5043967;28;20764;-52
2022/06/19 14:07:03;;;;;;;2.75;1.13;;;35.40;32.80;;;;;;5039932;28;20770;-50
2022/06/19 14:09:41;;;;;;;2.80;0.60;;;35.50;32.90;;;;;;5041221;28;20033;-52
2022/06/19 14:12:14;;;;;;;3.80;0.65;;;35.60;33.10;;;;;;5038247;28;20067;-55
2022/06/19 14:14:43;;;;;;;5.18;1.40;;;35.60;32.80;;;;;;5041400;28;20092;-50
2022/06/19 14:17:21;;;;;;;2.88;1.02;;;35.60;32.60;;;;;;5044971;28;20068;-52
2022/06/19 14:19:55;;;;;;;8.95;0.82;;;35.70;32.70;;;;;;5033819;28;20128;-58
2022/06/19 14:22:27;;;;;;;2.00;0.88;;;35.80;32.70;;;;;;5048249;28;20049;-53
2022/06/19 14:25:03;;;;;;;4.75;0.68;;;35.80;32.90;;;;;;5045039;28;20049;-54
2022/06/19 14:27:46;;;;;;;4.90;1.50;;;35.80;32.50;;;;;;5042976;28;20593;-53
2022/06/19 14:30:17;;;;;;;21.70;1.67;;;35.80;32.60;;;;;;5045677;28;20048;-62
2022/06/19 14:32:57;;;;;;;4.03;1.13;;;35.90;33.10;;;;;;5054362;28;20033;-66
2022/06/19 14:35:28;;;;;;;5.07;1.23;;;35.90;33.50;;;;;;5047962;28;20036;-71
2022/06/19 14:38:21;;;;;;;3.22;0.82;;;35.90;33.10;;;;;;5044288;28;20137;-67
2022/06/19 14:41:01;;;;;;;3.03;0.57;;;35.90;32.80;;;;;;5041758;28;20132;-65
2022/06/19 14:44:02;;;;;;;6.82;0.90;;;36.00;33.10;;;;;;5040578;28;20026;-68
2022/06/19 14:47:00;;;;;;;2.15;0.98;;;36.00;33.00;;;;;;5033834;28;20056;-72
2022/06/19 14:50:09;;;;;;;2.90;0.55;;;36.10;33.70;;;;;;5038079;28;20401;-70
2022/06/19 14:53:12;;;;;;;2.67;1.20;;;36.20;33.70;;;;;;5033347;28;20049;-66
2022/06/19 14:55:46;;;;;;;3.10;1.08;;;36.10;33.60;;;;;;5035607;28;20050;-70
2022/06/19 14:58:17;;;;;;;2.05;0.85;;;36.00;33.50;;;;;;5039611;28;20135;-65
2022/06/19 15:00:54;;;;;;;5.00;0.70;;;36.00;33.60;;;;;;5044748;28;20033;-65
2022/06/19 15:03:38;;;;;;;2.53;0.68;;;36.00;33.90;;;;;;5048421;28;20584;-65
2022/06/19 15:06:17;;;;;;;10.73;0.65;;;36.00;33.90;;;;;;5040267;28;20233;-65
2022/06/19 15:08:53;;;;;;;3.05;0.43;;;36.10;33.80;;;;;;5048649;28;20040;-72
2022/06/19 15:11:26;;;;;;;2.75;0.25;;;36.00;34.00;;;;;;5045082;28;20037;-69
2022/06/19 15:13:58;;;;;;;5.35;1.30;;;36.10;34.30;;;;;;5047968;28;20040;-76
2022/06/19 15:16:34;;;;;;;9.15;0.85;;;36.10;34.00;;;;;;5049904;28;20128;-63
2022/06/19 15:19:06;;;;;;;6.50;1.10;;;36.20;34.20;;;;;;5047844;28;20046;-72
2022/06/19 15:21:38;;;;;;;6.95;0.45;;;36.20;34.00;;;;;;5037680;28;20125;-58
2022/06/19 15:24:15;;;;;;;9.18;0.70;;;36.20;34.00;;;;;;5034734;28;20085;-60
2022/06/19 15:26:47;;;;;;;2.40;0.40;;;36.20;34.00;;;;;;5035350;28;20047;-57
2022/06/19 15:29:51;;;;;;;3.95;0.65;;;36.20;33.90;;;;;;5041573;28;20065;-63
2022/06/19 15:32:59;;;;;;;5.18;1.23;;;36.20;33.80;;;;;;5040884;28;20033;-66
2022/06/19 15:35:50;;;;;;;6.63;0.80;;;36.30;33.80;;;;;;5041558;28;20095;-69
2022/06/19 15:38:40;;;;;;;6.20;0.68;;;36.20;33.80;;;;;;5037576;28;20044;-62
2022/06/19 15:41:42;;;;;;;2.85;0.60;;;36.20;33.40;;;;;;5036230;28;20152;-59
2022/06/19 15:44:35;;;;;;;3.28;0.60;;;36.10;33.80;;;;;;5035599;28;20049;-58
2022/06/19 15:47:13;;;;;;;4.15;0.68;;;36.10;33.50;;;;;;5035203;28;20081;-63
2022/06/19 15:49:54;;;;;;;2.78;0.35;;;36.10;33.50;;;;;;5043167;28;20422;-63
2022/06/19 15:52:29;;;;;;;1.98;0.70;;;36.00;33.50;;;;;;5038652;28;20123;-68
2022/06/19 15:55:06;;;;;;;3.72;0.40;;;35.90;33.80;;;;;;5030666;28;20046;-64
2022/06/19 15:57:33;;;;;;;8.40;1.05;;;35.90;34.20;;;;;;5036880;28;20064;-66
2022/06/19 16:00:08;;;;;;;4.50;1.00;;;36.00;34.60;;;;;;5043789;28;20128;-67
2022/06/19 16:02:44;;;;;;;5.78;0.88;;;36.00;34.50;;;;;;5041982;28;20386;-67
2022/06/19 16:05:25;;;;;;;2.92;1.02;;;36.10;34.30;;;;;;5050416;28;20993;-67
2022/06/19 16:07:53;;;;;;;1.58;0.57;;;36.20;34.10;;;;;;5041217;28;20041;-66
2022/06/19 16:10:27;;;;;;;4.18;1.13;;;36.30;33.90;;;;;;5039412;28;20064;-66
2022/06/19 16:13:16;;;;;;;2.40;0.93;;;36.30;33.80;;;;;;5042454;28;20514;-73
2022/06/19 16:15:47;;;;;;;2.97;0.70;;;36.40;33.90;;;;;;5050643;28;20037;-67
2022/06/19 16:18:23;;;;;;;6.03;1.42;;;36.30;33.80;;;;;;5039959;28;20045;-67
2022/06/19 16:20:56;;;;;;;9.35;1.33;;;36.30;33.70;;;;;;5046443;28;20045;-68
2022/06/19 16:23:25;;;;;;;4.10;1.15;;;36.30;33.60;;;;;;5062017;28;20044;-68
2022/06/19 16:25:54;;;;;;;1.90;0.73;;;36.30;33.90;;;;;;5044797;28;20072;-62
2022/06/19 16:28:25;;;;;;;2.05;0.57;;;36.30;34.00;;;;;;5040304;28;20099;-65
2022/06/19 16:30:58;;;;;;;3.38;0.82;;;36.30;33.90;;;;;;5043058;28;20128;-62
2022/06/19 16:33:28;;;;;;;4.75;1.05;;;36.20;33.80;;;;;;5040956;28;20585;-69
2022/06/19 16:44:31;;;;;;;2.63;0.77;;;36.20;34.40;;;;;;5054196;28;20072;-61
2022/06/19 16:47:02;;;;;;;1.65;1.30;;;36.20;34.50;;;;;;5038838;28;20049;-56
2022/06/19 16:49:32;;;;;;;1.38;1.00;;;36.20;34.50;;;;;;5038772;28;20045;-57
2022/06/19 16:52:04;;;;;;;1.17;0.82;;;36.20;34.60;;;;;;5049221;28;20429;-61
2022/06/19 16:54:40;;;;;;;2.67;0.80;;;36.30;34.60;;;;;;5035269;28;20029;-57
2022/06/19 16:57:19;;;;;;;4.30;0.93;;;36.20;34.60;;;;;;5042589;28;20497;-61
2022/06/19 16:59:47;;;;;;;5.18;1.05;;;36.30;34.70;;;;;;5036638;28;20046;-58
2022/06/19 17:02:17;;;;;;;5.28;1.10;;;36.30;34.60;;;;;;5044409;28;20047;-54
2022/06/19 17:04:45;;;;;;;4.70;1.23;;;36.30;34.70;;;;;;5044606;28;20520;-68
2022/06/19 17:07:15;;;;;;;3.50;0.63;;;36.40;34.80;;;;;;5050240;28;20440;-66
2022/06/19 17:09:47;;;;;;;2.00;0.73;;;36.40;34.60;;;;;;5047961;28;20037;-66
2022/06/19 17:12:18;;;;;;;3.70;1.02;;;36.40;34.80;;;;;;5046747;28;20037;-57
2022/06/19 17:14:49;;;;;;;3.03;1.30;;;36.30;34.80;;;;;;5052515;28;20037;-60
2022/06/19 17:17:23;;;;;;;14.57;2.63;;;36.40;35.10;;;;;;5039686;28;20057;-57
2022/06/19 17:19:58;;;;;;;5.13;1.17;;;36.40;35.20;;;;;;5049150;28;20137;-57
2022/06/19 17:22:34;;;;;;;6.72;2.03;;;36.40;35.00;;;;;;5043372;28;20127;-61
2022/06/19 17:25:08;;;;;;;4.88;1.35;;;36.40;34.60;;;;;;5039388;28;20449;-58
2022/06/19 17:27:58;;;;;;;4.95;1.20;;;36.30;33.90;;;;;;5036347;28;20687;-64
2022/06/19 17:30:29;;;;;;;9.70;0.93;;;36.30;34.20;;;;;;5034321;28;20037;-70
2022/06/19 17:32:58;;;;;;;10.70;2.45;;;36.20;34.70;;;;;;5054133;28;20041;-79
2022/06/19 17:35:39;;;;;;;6.00;1.88;;;36.10;35.00;;;;;;5048562;28;20119;-72
2022/06/19 17:38:21;;;;;;;6.32;1.05;;;36.00;35.30;;;;;;5044372;28;20040;-59
2022/06/19 17:40:53;;;;;;;8.30;1.45;;;35.70;35.50;;;;;;5046402;28;20044;-62
2022/06/19 17:43:26;;;;;;;6.30;1.67;;;35.50;35.60;;;;;;5045139;28;20041;-61
2022/06/19 17:45:55;;;;;;;4.75;1.48;;;35.40;35.80;;;;;;5042973;28;20515;-54
2022/06/19 17:48:26;;;;;;;4.78;1.30;;;35.30;35.80;;;;;;5040945;28;20049;-58
2022/06/19 17:50:57;;;;;;;11.88;1.10;;;35.20;36.00;;;;;;5039092;28;20049;-56
2022/06/19 17:53:41;;;;;;;5.43;1.65;;;35.10;36.00;;;;;;5038762;28;20044;-56
2022/06/19 17:56:36;;;;;;;6.43;1.38;;;35.00;36.00;;;;;;5048323;28;20604;-59
2022/06/19 17:59:19;;;;;;;1.95;1.38;;;34.80;35.90;;;;;;5048334;28;20041;-57
2022/06/19 18:01:48;;;;;;;5.82;2.13;;;34.70;36.20;;;;;;5042770;28;20037;-58
2022/06/19 18:04:18;;;;;;;1.88;1.10;;;34.60;36.20;;;;;;5039425;28;20045;-57
2022/06/19 18:06:47;;;;;;;2.38;1.25;;;34.50;36.30;;;;;;5035518;28;20039;-57
2022/06/19 18:09:22;;;;;;;7.50;1.08;;;34.40;36.30;;;;;;5035105;28;20037;-60
2022/06/19 18:11:50;;;;;;;;;;;34.30;36.40;;;;;;5041147;28;20061;-58
2022/06/19 18:14:21;;;;;;;3.10;1.02;;;34.20;36.50;;;;;;5049006;28;19925;-61
2022/06/19 18:19:33;;;;;;;5.50;1.27;;;34.00;36.80;;;;;;5043135;28;20412;-58
2022/06/19 18:22:00;;;;;;;3.90;1.10;;;33.90;36.80;;;;;;5044939;28;20060;-58
2022/06/19 18:24:29;;;;;;;5.22;1.70;;;33.80;36.70;;;;;;5048650;28;20116;-61
2022/06/19 18:27:01;;;;;;;4.38;0.90;;;33.70;36.90;;;;;;5045767;28;20045;-66
2022/06/19 18:29:33;;;;;;;2.28;0.65;;;33.60;37.00;;;;;;5047251;28;20072;-68
2022/06/19 18:32:04;;;;;;;3.63;1.58;;;33.50;37.20;;;;;;5064161;28;20056;-64
2022/06/19 18:34:32;;;;;;;6.85;1.00;;;33.50;37.40;;;;;;5066755;28;20066;-64
2022/06/19 18:36:59;;;;;;;2.47;0.73;;;33.40;37.40;;;;;;5051453;28;20042;-63
2022/06/19 18:39:32;;;;;;;7.70;1.17;;;33.30;37.50;;;;;;5052200;28;20037;-61
2022/06/19 18:42:00;;;;;;;3.35;0.80;;;33.30;37.60;;;;;;5060436;28;20068;-61
2022/06/19 18:44:29;;;;;;;6.95;0.77;;;33.30;37.70;;;;;;5042463;28;20064;-61
2022/06/19 18:46:59;;;;;;;3.05;0.47;;;33.30;37.70;;;;;;5050189;28;20417;-61
2022/06/19 18:49:31;;;;;;;7.88;0.98;;;33.20;37.70;;;;;;5052124;28;20637;-61
2022/06/19 18:52:00;;;;;;;6.10;0.95;;;33.20;37.80;;;;;;5043183;28;20041;-60
2022/06/19 18:54:32;;;;;;;3.33;0.70;;;33.10;37.80;;;;;;5043689;28;20038;-59
2022/06/19 18:57:00;;;;;;;3.85;0.90;;;33.10;37.90;;;;;;5040148;28;20045;-62
2022/06/19 18:59:28;;;;;;;6.70;0.47;;;33.10;38.00;;;;;;5034149;28;20049;-62
2022/06/19 19:01:56;;;;;;;5.72;0.77;;;33.00;38.00;;;;;;5038609;28;20624;-61
2022/06/19 19:04:25;;;;;;;1.30;1.13;;;33.00;38.10;;;;;;5037097;28;20045;-62
2022/06/19 19:06:54;;;;;;;4.75;0.55;;;33.00;38.20;;;;;;5035005;28;20079;-62
2022/06/19 19:09:26;;;;;;;1.67;0.55;;;33.00;38.20;;;;;;5041093;28;20041;-62
2022/06/19 19:11:56;;;;;;;3.17;0.57;;;32.90;38.40;;;;;;5042406;28;20128;-64
2022/06/19 19:14:28;;;;;;;5.32;0.63;;;32.90;38.70;;;;;;5045100;28;20567;-64
2022/06/19 19:16:56;;;;;;;2.65;0.60;;;32.90;38.70;;;;;;5039669;28;20523;-65
2022/06/19 19:19:25;;;;;;;1.27;0.43;;;32.80;38.80;;;;;;5038276;28;20397;-63
2022/06/19 19:21:52;;;;;;;2.75;0.30;;;32.80;38.90;;;;;;5034631;28;20049;-63
2022/06/19 19:24:20;;;;;;;10.65;1.48;;;32.70;38.80;;;;;;5042641;28;20063;-56
2022/06/19 19:26:50;;;;;;;7.28;0.60;;;32.70;39.10;;;;;;5048111;28;20465;-55
2022/06/19 19:29:23;;;;;;;1.42;0.68;;;32.70;39.10;;;;;;5042585;28;20045;-57
2022/06/19 19:31:52;;;;;;;2.85;0.52;;;32.70;39.10;;;;;;5037851;28;20691;-59
2022/06/19 19:34:19;;;;;;;4.30;0.50;;;32.60;39.20;;;;;;5039625;28;20037;-56
2022/06/19 19:36:48;;;;;;;1.73;0.57;;;32.60;39.10;;;;;;5036117;28;20041;-55
2022/06/19 19:39:17;;;;;;;3.47;1.02;;;32.60;39.20;;;;;;5037614;28;20115;-59
2022/06/19 19:41:44;;;;;;;3.30;1.05;;;32.50;39.20;;;;;;5044392;28;21519;-55
2022/06/19 19:44:13;;;;;;;1.60;0.55;;;32.50;39.70;;;;;;5040691;28;20041;-57
2022/06/19 19:46:44;;;;;;;3.58;0.88;;;32.40;39.30;;;;;;5041612;28;20041;-54
2022/06/19 19:49:18;;;;;;;3.35;0.40;;;32.40;39.40;;;;;;5040340;28;20048;-59
2022/06/19 19:51:46;;;;;;;1.75;0.30;;;32.40;39.40;;;;;;5040155;28;20041;-58
2022/06/19 19:54:13;;;;;;;2.40;0.70;;;32.40;39.50;;;;;;5039177;28;20132;-59
2022/06/19 19:56:41;;;;;;;1.70;0.68;;;32.30;39.40;;;;;;5042131;28;20041;-57
2022/06/19 19:59:10;;;;;;;1.85;0.43;;;32.30;39.60;;;;;;5040884;28;20103;-59
2022/06/19 20:01:37;;;;;;;1.73;0.43;;;32.20;39.80;;;;;;5041115;28;20037;-59
2022/06/19 20:04:05;;;;;;;2.30;0.20;;;32.20;40.40;;;;;;5039536;28;20069;-64
2022/06/19 20:12:08;;;;;;;3.70;0.80;;;32.10;42.30;;;;;;5039975;28;20111;-64
2022/06/19 20:14:36;;;;;;;5.43;0.40;;;32.00;42.90;;;;;;5041226;28;20138;-63
2022/06/19 20:17:03;;;;;;;3.38;1.10;;;32.00;43.20;;;;;;5038881;28;20064;-62
2022/06/19 20:19:31;;;;;;;4.18;0.30;;;32.00;43.40;;;;;;5038020;28;20361;-62
2022/06/19 20:22:08;;;;;;;1.05;0.38;;;32.00;43.60;;;;;;5038742;28;20049;-62
2022/06/19 20:24:40;;;;;;;6.25;1.30;;;31.90;43.60;;;;;;5048723;28;20398;-63
2022/06/19 20:27:12;;;;;;;3.85;0.60;;;31.90;43.80;;;;;;5041700;28;20045;-62
2022/06/19 20:29:50;;;;;;;2.58;0.30;;;31.90;43.80;;;;;;5046035;28;20033;-63
2022/06/19 20:32:23;;;;;;;2.90;0.75;;;31.80;44.00;;;;;;5044672;28;20065;-63
2022/06/19 20:34:52;;;;;;;5.78;0.30;;;31.70;44.00;;;;;;5039248;28;20069;-63
2022/06/19 20:37:20;;;;;;;1.92;0.20;;;31.70;44.30;;;;;;5046548;28;20394;-63
2022/06/19 20:39:48;;;;;;;1.33;0.30;;;31.70;44.20;;;;;;5045705;28;20120;-63
2022/06/19 20:42:25;;;;;;;3.13;0.65;;;31.80;43.80;;;;;;5047692;28;20040;-63
2022/06/19 20:44:54;;;;;;;7.03;0.32;;;31.90;43.50;;;;;;5057921;28;20037;-63
2022/06/19 20:47:24;;;;;;;2.35;0.90;;;31.90;43.20;;;;;;5043468;28;20041;-63
2022/06/19 20:49:55;;;;;;;2.03;0.73;;;32.00;43.10;;;;;;5040799;28;20048;-63
2022/06/19 20:52:24;;;;;;;4.60;0.55;;;32.10;42.70;;;;;;5039143;28;20584;-63
2022/06/19 20:54:54;;;;;;;7.13;0.63;;;32.10;42.50;;;;;;5044217;28;20498;-63
2022/06/19 20:57:21;;;;;;;1.65;0.98;;;32.10;42.50;;;;;;5043788;28;20104;-63
2022/06/19 20:59:49;;;;;;;2.92;0.88;;;32.10;42.40;;;;;;5042238;28;20136;-63
2022/06/19 21:02:16;;;;;;;0.80;0.47;;;32.20;42.50;;;;;;5042566;28;20531;-64
2022/06/19 21:04:43;;;;;;;2.22;0.82;;;32.20;42.40;;;;;;5042235;28;20057;-64
2022/06/19 21:07:18;;;;;;;2.92;0.70;;;32.20;42.20;;;;;;5040456;28;20053;-63
2022/06/19 21:09:45;;;;;;;4.70;0.88;;;32.20;42.20;;;;;;5041495;28;20408;-63
2022/06/19 21:12:13;;;;;;;3.25;0.77;;;32.20;42.30;;;;;;5044377;28;20042;-61
2022/06/19 21:14:41;;;;;;;3.55;0.95;;;32.20;42.00;;;;;;5046305;28;20061;-63
2022/06/19 21:17:12;;;;;;;6.25;1.77;;;32.20;41.90;;;;;;5042151;28;20064;-72
2022/06/19 21:19:39;;;;;;;3.42;1.48;;;32.20;41.70;;;;;;5055975;28;20079;-74
2022/06/19 21:22:07;;;;;;;2.95;1.05;;;32.20;41.90;;;;;;5039702;28;20037;-61
2022/06/19 21:24:36;;;;;;;5.80;2.15;;;32.20;41.80;;;;;;5047047;28;20498;-62
2022/06/19 21:27:07;;;;;;;4.25;2.30;;;32.20;41.30;;;;;;5049577;28;20075;-61
2022/06/19 21:29:35;;;;;;;4.75;1.73;;;32.20;41.40;;;;;;5045191;28;20034;-62
2022/06/19 21:32:03;;;;;;;3.55;1.95;;;32.00;41.40;;;;;;5054921;28;20045;-62
2022/06/19 21:34:30;;;;;;;2.80;2.53;;;31.90;41.60;;;;;;5046936;28;20045;-61
2022/06/19 21:36:58;;;;;;;4.32;2.83;;;31.80;41.70;;;;;;5047875;28;20052;-63
2022/06/19 21:39:28;;;;;;;6.18;3.75;;;31.70;41.80;;;;;;5050906;28;20548;-62
2022/06/19 21:41:57;;;;;;;3.80;2.67;;;31.60;41.60;;;;;;5039225;28;20052;-62
2022/06/19 21:44:24;;;;;;;5.63;2.20;;;31.50;41.60;;;;;;5046866;28;20043;-63
2022/06/19 21:46:51;;;;;;;5.38;2.03;;;31.40;41.90;;;;;;5049981;28;20064;-64
2022/06/19 21:49:19;;;;;;;3.78;3.58;;;31.30;42.00;;;;;;5049169;28;20037;-64
2022/06/19 21:51:49;;;;;;;4.60;2.35;;;31.20;41.70;;;;;;5053258;28;20076;-61
2022/06/19 21:54:18;;;;;;;3.90;2.10;;;31.20;41.90;;;;;;5046280;28;20103;-63
2022/06/19 21:56:46;;;;;;;4.00;2.35;;;31.10;42.00;;;;;;5044406;28;20037;-63
2022/06/19 21:59:17;;;;;;;2.65;1.90;;;31.00;42.00;;;;;;5048322;28;20036;-63
2022/06/19 22:01:45;;;;;;;4.25;2.83;;;30.90;42.10;;;;;;5043986;28;20038;-63
2022/06/19 22:04:12;;;;;;;4.45;2.10;;;30.90;42.30;;;;;;5049651;28;20420;-60
2022/06/19 22:06:42;;;;;;;4.55;1.92;;;30.80;42.30;;;;;;5049136;28;20068;-62
2022/06/19 22:09:16;;;;;;;9.82;4.03;;;30.70;42.40;;;;;;5045314;28;20091;-63
2022/06/19 22:14:31;;;;;;;4.03;2.08;;;30.60;42.70;;;;;;5043693;28;20060;-63
2022/06/19 22:16:59;;;;;;;3.55;2.00;;;30.50;42.70;;;;;;5043186;28;20049;-62
2022/06/19 22:19:26;;;;;;;3.42;2.40;;;30.50;42.90;;;;;;5043242;28;20029;-63
2022/06/19 22:21:54;;;;;;;4.53;2.17;;;30.40;43.10;;;;;;5038678;28;20048;-62
2022/06/19 22:24:24;;;;;;;5.25;3.50;;;30.40;43.20;;;;;;5042388;28;20041;-62
2022/06/19 22:26:54;;;;;;;3.53;2.55;;;30.30;43.20;;;;;;5044930;28;20040;-62
2022/06/19 22:29:22;;;;;;;8.73;2.95;;;30.30;43.40;;;;;;5047771;28;20072;-61
2022/06/19 22:31:51;;;;;;;4.47;2.28;;;30.20;43.50;;;;;;5044058;28;20448;-60
2022/06/19 22:34:18;;;;;;;2.65;2.03;;;30.20;43.70;;;;;;5044627;28;20049;-61
2022/06/19 22:36:51;;;;;;;3.00;2.78;;;30.10;43.70;;;;;;5046989;28;20532;-61
2022/06/19 22:39:21;;;;;;;7.53;3.22;;;30.10;43.90;;;;;;5047989;28;20068;-61
2022/06/19 22:41:49;;;;;;;6.25;2.70;;;30.10;44.00;;;;;;5049325;28;20110;-60
2022/06/19 22:44:19;;;;;;;4.75;2.45;;;30.00;44.00;;;;;;5040742;28;20048;-60
2022/06/19 22:46:47;;;;;;;4.03;1.90;;;30.00;44.10;;;;;;5042779;28;20537;-61
2022/06/19 22:49:18;;;;;;;4.13;3.50;;;29.90;44.20;;;;;;5043164;28;20032;-61
2022/06/19 22:51:46;;;;;;;7.07;2.67;;;29.90;44.20;;;;;;5043461;28;20051;-61
2022/06/19 22:54:14;;;;;;;5.15;2.40;;;29.80;44.30;;;;;;5046425;28;20041;-61
2022/06/19 22:56:41;;;;;;;4.32;2.88;;;29.80;44.60;;;;;;5046780;28;20076;-61
2022/06/19 23:01:57;;;;;;;2.67;2.45;;;29.70;45.00;;;;;;5041325;28;20049;-61
2022/06/19 23:04:28;;;;;;;4.72;2.35;;;29.70;45.10;;;;;;5041954;28;20049;-62
2022/06/19 23:06:56;;;;;;;3.85;2.05;;;29.60;45.10;;;;;;5039933;28;20044;-61
2022/06/19 23:09:26;;;;;;;2.17;1.88;;;29.60;45.20;;;;;;5044567;28;20073;-62
2022/06/19 23:11:53;;;;;;;3.10;2.38;;;29.60;45.30;;;;;;5041266;28;20106;-61
2022/06/19 23:14:21;;;;;;;2.60;2.25;;;29.60;45.50;;;;;;5042950;28;20037;-62
2022/06/19 23:16:52;;;;;;;3.47;1.92;;;29.50;45.50;;;;;;5038736;28;20059;-62
2022/06/19 23:19:22;;;;;;;3.22;2.40;;;29.50;45.60;;;;;;5043449;28;20069;-62
2022/06/19 23:21:51;;;;;;;3.80;2.15;;;29.50;45.60;;;;;;5041905;28;20514;-62
2022/06/19 23:24:21;;;;;;;3.85;2.80;;;29.40;45.60;;;;;;5041088;28;20040;-59
2022/06/19 23:26:52;;;;;;;3.92;2.83;;;29.40;45.70;;;;;;5043952;28;20131;-58
2022/06/19 23:29:19;;;;;;;3.35;2.00;;;29.30;45.70;;;;;;5045760;28;20037;-61
2022/06/19 23:31:47;;;;;;;3.80;1.90;;;29.30;45.40;;;;;;5042430;28;20040;-61